Time;durP1;ratioP1;P1;durP2;ratioP2;P2;SDS_P1;SDS_P2;PMS_P1;PMS_P2;Temp;Humidity;BMP_temperature;BMP_pressure;BME280_temperature;BME280_humidity;BME280_pressure;Samples;Min_cycle;Max_cycle;Signal;HPM_P1;HPM_P2
2022/01/07 00:00:22;;;;;;;48.25;14.30;;;3.50;99.90;;;;;;5087542;28;20073;-62
2022/01/07 00:02:51;;;;;;;59.38;14.75;;;3.40;99.90;;;;;;5084113;28;20047;-63
2022/01/07 00:05:17;;;;;;;55.33;15.27;;;3.50;99.90;;;;;;5095660;28;20050;-62
2022/01/07 00:07:42;;;;;;;46.03;14.93;;;3.50;99.90;;;;;;5089339;28;20044;-64
2022/01/07 00:10:10;;;;;;;53.88;14.27;;;3.50;99.90;;;;;;5088425;28;20386;-63
2022/01/07 00:12:36;;;;;;;48.55;13.60;;;3.40;99.90;;;;;;5087663;28;20177;-61
2022/01/07 00:15:04;;;;;;;54.10;14.60;;;3.50;99.90;;;;;;5103814;28;20453;-64
2022/01/07 00:17:30;;;;;;;50.70;13.10;;;3.50;99.90;;;;;;5088090;28;20134;-64
2022/01/07 00:19:56;;;;;;;48.13;13.57;;;3.50;99.90;;;;;;5083534;28;20122;-61
2022/01/07 00:22:22;;;;;;;58.97;14.32;;;3.40;99.90;;;;;;5086086;28;20033;-64
2022/01/07 00:24:48;;;;;;;47.60;13.45;;;3.40;99.90;;;;;;5089014;28;20119;-64
2022/01/07 00:27:13;;;;;;;47.50;14.48;;;3.40;99.90;;;;;;5088324;28;20119;-64
2022/01/07 00:29:39;;;;;;;49.38;13.18;;;3.40;99.90;;;;;;5085453;28;20165;-64
2022/01/07 00:32:05;;;;;;;48.83;13.25;;;3.40;99.90;;;;;;5071729;28;20071;-63
2022/01/07 00:34:31;;;;;;;52.53;13.90;;;3.40;99.90;;;;;;5089064;28;20101;-63
2022/01/07 00:36:56;;;;;;;45.38;13.07;;;3.40;99.90;;;;;;5071558;28;20032;-64
2022/01/07 00:39:22;;;;;;;47.97;13.60;;;3.40;99.90;;;;;;5070143;28;20134;-64
2022/01/07 00:41:47;;;;;;;54.42;12.80;;;3.30;99.90;;;;;;5094592;28;20043;-64
2022/01/07 00:44:13;;;;;;;56.00;13.55;;;3.30;99.90;;;;;;5100571;28;20570;-63
2022/01/07 00:46:39;;;;;;;49.67;14.45;;;3.30;99.90;;;;;;5070980;28;20482;-64
2022/01/07 00:49:05;;;;;;;49.47;14.15;;;3.30;99.90;;;;;;5086462;28;20097;-63
2022/01/07 00:51:31;;;;;;;43.53;12.77;;;3.20;99.90;;;;;;5095993;28;20065;-65
2022/01/07 00:53:56;;;;;;;40.65;12.88;;;3.20;99.90;;;;;;5091759;28;20031;-63
2022/01/07 00:56:22;;;;;;;47.63;13.10;;;3.20;99.90;;;;;;5101190;28;20035;-64
2022/01/07 00:58:47;;;;;;;46.88;13.75;;;3.20;99.90;;;;;;5079404;28;20712;-64
2022/01/07 01:01:13;;;;;;;49.35;13.80;;;3.20;99.90;;;;;;5094719;28;20040;-65
2022/01/07 01:03:39;;;;;;;45.03;12.75;;;3.20;99.90;;;;;;5087627;28;20039;-66
2022/01/07 01:06:04;;;;;;;45.50;12.60;;;3.10;99.90;;;;;;5088188;28;20059;-65
2022/01/07 01:08:30;;;;;;;46.63;12.85;;;3.20;99.90;;;;;;5090338;28;20116;-65
2022/01/07 01:10:56;;;;;;;47.05;12.80;;;3.10;99.90;;;;;;5093032;28;20035;-66
2022/01/07 01:13:21;;;;;;;50.88;13.35;;;3.10;99.90;;;;;;5084360;28;20483;-66
2022/01/07 01:15:47;;;;;;;54.42;13.88;;;3.10;99.90;;;;;;5083866;28;20135;-65
2022/01/07 01:18:13;;;;;;;47.33;12.88;;;3.00;99.90;;;;;;5092329;28;20042;-70
2022/01/07 01:20:39;;;;;;;45.90;13.93;;;3.00;99.90;;;;;;5095723;28;20436;-69
2022/01/07 01:23:05;;;;;;;41.70;13.48;;;3.00;99.90;;;;;;5090406;28;20042;-71
2022/01/07 01:25:30;;;;;;;49.47;13.55;;;3.00;99.90;;;;;;5084144;28;20166;-70
2022/01/07 01:27:57;;;;;;;48.08;14.15;;;3.00;99.90;;;;;;5091841;28;20392;-70
2022/01/07 01:30:27;;;;;;;48.50;14.10;;;2.90;99.90;;;;;;5091222;28;20508;-70
2022/01/07 01:32:53;;;;;;;62.58;17.02;;;3.00;99.90;;;;;;5093307;28;20035;-70
2022/01/07 01:35:19;;;;;;;47.35;15.07;;;2.90;99.90;;;;;;5093105;28;20077;-71
2022/01/07 01:37:45;;;;;;;59.60;14.93;;;2.90;99.90;;;;;;5095212;28;20056;-70
2022/01/07 01:40:11;;;;;;;52.25;15.77;;;2.90;99.90;;;;;;5071332;28;20028;-69
2022/01/07 01:42:37;;;;;;;52.63;16.38;;;2.80;99.90;;;;;;5085497;28;20044;-69
2022/01/07 01:45:04;;;;;;;62.63;16.52;;;2.80;99.90;;;;;;5084598;28;20086;-70
2022/01/07 01:47:30;;;;;;;53.30;17.77;;;2.80;99.90;;;;;;5086836;28;20129;-71
2022/01/07 01:49:55;;;;;;;65.75;18.27;;;2.80;99.90;;;;;;5085850;28;20061;-70
2022/01/07 01:52:21;;;;;;;57.22;18.02;;;2.80;99.90;;;;;;5087502;28;20086;-70
2022/01/07 01:54:46;;;;;;;67.78;20.15;;;2.80;99.90;;;;;;5096278;28;20055;-69
2022/01/07 01:57:13;;;;;;;70.47;20.95;;;2.80;99.90;;;;;;5070444;28;20040;-70
2022/01/07 01:59:39;;;;;;;64.47;19.02;;;2.70;99.90;;;;;;5087351;28;20101;-70
2022/01/07 02:02:05;;;;;;;56.40;18.85;;;2.70;99.90;;;;;;5078973;28;20052;-69
2022/01/07 02:04:30;;;;;;;68.10;19.88;;;2.70;99.90;;;;;;5091760;28;20079;-70
2022/01/07 02:06:56;;;;;;;69.72;19.58;;;2.70;99.90;;;;;;5090565;28;20044;-70
2022/01/07 02:09:30;;;;;;;77.18;20.98;;;2.70;99.90;;;;;;5085998;28;20406;-70
2022/01/07 02:11:56;;;;;;;80.03;22.75;;;2.70;99.90;;;;;;5093946;28;20032;-70
2022/01/07 02:14:22;;;;;;;70.72;20.35;;;2.70;99.90;;;;;;5093972;28;20055;-70
2022/01/07 02:16:47;;;;;;;77.72;22.02;;;2.70;99.90;;;;;;5086591;28;20040;-70
2022/01/07 02:19:13;;;;;;;71.05;22.27;;;2.70;99.90;;;;;;5093293;28;21252;-69
2022/01/07 02:21:38;;;;;;;67.53;23.38;;;2.70;99.90;;;;;;5092350;28;20079;-71
2022/01/07 02:24:06;;;;;;;73.90;22.52;;;2.70;99.90;;;;;;5091254;28;20406;-69
2022/01/07 02:26:35;;;;;;;75.13;22.45;;;2.70;99.90;;;;;;5085275;28;20046;-70
2022/01/07 02:29:02;;;;;;;70.55;21.55;;;2.70;99.90;;;;;;5086553;28;20082;-71
2022/01/07 02:31:27;;;;;;;65.68;21.80;;;2.70;99.90;;;;;;5083193;28;20028;-70
2022/01/07 02:33:53;;;;;;;71.95;23.10;;;2.70;99.90;;;;;;5068939;28;20098;-70
2022/01/07 02:36:18;;;;;;;69.95;22.80;;;2.60;99.90;;;;;;5094798;28;20429;-71
2022/01/07 02:38:44;;;;;;;69.53;23.02;;;2.70;99.90;;;;;;5084428;28;20032;-70
2022/01/07 02:41:10;;;;;;;61.13;22.23;;;2.70;99.90;;;;;;5091628;28;20072;-69
2022/01/07 02:43:35;;;;;;;70.80;20.90;;;2.70;99.90;;;;;;5082942;28;20471;-70
2022/01/07 02:46:01;;;;;;;71.60;24.33;;;2.70;99.90;;;;;;5086245;28;20051;-69
2022/01/07 02:48:26;;;;;;;72.70;22.50;;;2.70;99.90;;;;;;5089703;28;20042;-69
2022/01/07 02:50:52;;;;;;;79.00;23.98;;;2.70;99.90;;;;;;5095466;28;20550;-70
2022/01/07 02:53:17;;;;;;;71.93;23.65;;;2.70;99.90;;;;;;5096705;28;20027;-70
2022/01/07 02:55:44;;;;;;;70.65;22.77;;;2.70;99.90;;;;;;5092352;28;20141;-70
2022/01/07 02:58:09;;;;;;;79.20;24.52;;;2.70;99.90;;;;;;5089935;28;20363;-69
2022/01/07 03:00:36;;;;;;;78.90;22.83;;;2.70;99.90;;;;;;5088738;28;20043;-69
2022/01/07 03:03:04;;;;;;;69.10;22.58;;;2.70;99.90;;;;;;5089556;28;20202;-68
2022/01/07 03:05:30;;;;;;;80.38;25.10;;;2.70;99.90;;;;;;5091512;28;20040;-69
2022/01/07 03:07:55;;;;;;;81.05;24.52;;;2.70;99.90;;;;;;5088189;28;20051;-69
2022/01/07 03:10:27;;;;;;;85.10;24.83;;;2.70;99.90;;;;;;5088378;28;20102;-69
2022/01/07 03:12:54;;;;;;;67.60;23.30;;;2.70;99.90;;;;;;5095960;28;20441;-70
2022/01/07 03:15:19;;;;;;;77.10;25.55;;;2.70;99.90;;;;;;5094204;28;20115;-69
2022/01/07 03:17:45;;;;;;;73.15;23.50;;;2.70;99.90;;;;;;5090719;28;20123;-69
2022/01/07 03:20:14;;;;;;;72.03;23.33;;;2.70;99.90;;;;;;5091844;28;20038;-70
2022/01/07 03:22:41;;;;;;;85.63;25.58;;;2.80;99.90;;;;;;5071961;28;20551;-69
2022/01/07 03:25:07;;;;;;;71.78;24.52;;;2.70;99.90;;;;;;5088090;28;20039;-70
2022/01/07 03:27:33;;;;;;;77.35;24.30;;;2.80;99.90;;;;;;5083946;28;20051;-69
2022/01/07 03:29:59;;;;;;;84.20;26.10;;;2.80;99.90;;;;;;5086280;28;20040;-69
2022/01/07 03:32:24;;;;;;;77.25;24.38;;;2.80;99.90;;;;;;5089590;28;20036;-69
2022/01/07 03:34:51;;;;;;;72.07;25.10;;;2.70;99.90;;;;;;5089454;28;20036;-70
2022/01/07 03:37:17;;;;;;;81.85;25.65;;;2.80;99.90;;;;;;5090020;28;20020;-69
2022/01/07 03:39:42;;;;;;;71.68;23.17;;;2.80;99.90;;;;;;5089632;28;20039;-69
2022/01/07 03:42:08;;;;;;;71.07;22.90;;;2.80;99.90;;;;;;5087294;28;20169;-70
2022/01/07 03:44:34;;;;;;;68.50;22.77;;;2.80;99.90;;;;;;5089405;28;20039;-69
2022/01/07 03:46:59;;;;;;;72.78;24.52;;;2.80;99.90;;;;;;5088924;28;20036;-69
2022/01/07 03:49:25;;;;;;;63.95;23.35;;;2.80;99.90;;;;;;5088393;28;20039;-69
2022/01/07 03:51:50;;;;;;;68.82;23.40;;;2.80;99.90;;;;;;5088469;28;20035;-69
2022/01/07 03:54:16;;;;;;;69.68;22.88;;;2.80;99.90;;;;;;5079449;28;20050;-69
2022/01/07 03:56:42;;;;;;;69.85;22.55;;;2.80;99.90;;;;;;5096222;28;20112;-69
2022/01/07 03:59:07;;;;;;;61.53;20.98;;;2.90;99.90;;;;;;5086721;28;20438;-69
2022/01/07 04:01:33;;;;;;;68.75;23.80;;;2.80;99.90;;;;;;5097224;28;20047;-69
2022/01/07 04:03:58;;;;;;;67.95;23.02;;;2.90;99.90;;;;;;5086334;28;20045;-69
2022/01/07 04:06:24;;;;;;;69.18;23.05;;;2.80;99.90;;;;;;5092401;28;20777;-68
2022/01/07 04:08:50;;;;;;;63.95;22.15;;;2.80;99.90;;;;;;5092498;28;20097;-69
2022/01/07 04:11:17;;;;;;;69.38;21.52;;;2.80;99.90;;;;;;5087734;28;20036;-70
2022/01/07 04:13:44;;;;;;;67.75;22.10;;;2.80;99.90;;;;;;5089498;28;20059;-69
2022/01/07 04:16:10;;;;;;;75.93;22.58;;;2.90;99.90;;;;;;5085846;28;20087;-69
2022/01/07 04:18:36;;;;;;;59.83;20.60;;;2.90;99.90;;;;;;5087447;28;20040;-69
2022/01/07 04:21:02;;;;;;;54.65;20.92;;;2.90;99.90;;;;;;5087165;28;20402;-68
2022/01/07 04:23:27;;;;;;;61.33;21.05;;;2.90;99.90;;;;;;5087450;28;20146;-68
2022/01/07 04:25:53;;;;;;;65.90;22.67;;;2.90;99.90;;;;;;5095140;28;20042;-69
2022/01/07 04:28:19;;;;;;;63.15;21.00;;;2.90;99.90;;;;;;5090804;28;20560;-69
2022/01/07 04:30:45;;;;;;;62.85;21.88;;;2.90;99.90;;;;;;5080499;28;20052;-70
2022/01/07 04:33:14;;;;;;;52.15;19.15;;;2.90;99.90;;;;;;5085092;28;20046;-69
2022/01/07 04:35:41;;;;;;;55.10;19.92;;;2.90;99.90;;;;;;5091818;28;20032;-70
2022/01/07 04:38:07;;;;;;;59.53;20.25;;;2.90;99.90;;;;;;5091405;28;20044;-68
2022/01/07 04:40:33;;;;;;;57.60;19.98;;;2.90;99.90;;;;;;5086599;28;20051;-68
2022/01/07 04:43:04;;;;;;;56.85;21.40;;;2.90;99.90;;;;;;5088931;28;20040;-69
2022/01/07 04:45:29;;;;;;;56.17;21.35;;;2.80;99.90;;;;;;5086630;28;20394;-68
2022/01/07 04:47:55;;;;;;;57.00;19.95;;;2.80;99.90;;;;;;5100458;27;20059;-68
2022/01/07 04:50:22;;;;;;;57.47;19.27;;;2.80;99.90;;;;;;5103606;28;20043;-69
2022/01/07 04:52:48;;;;;;;54.25;19.80;;;2.90;99.90;;;;;;5092372;28;20043;-70
2022/01/07 04:55:20;;;;;;;53.58;19.40;;;2.80;99.90;;;;;;5088038;28;20032;-69
2022/01/07 04:57:46;;;;;;;60.08;19.92;;;2.80;99.90;;;;;;5086751;28;20050;-68
2022/01/07 05:00:14;;;;;;;55.40;20.60;;;2.80;99.90;;;;;;5099792;28;20397;-68
2022/01/07 05:02:40;;;;;;;55.53;19.42;;;2.80;99.90;;;;;;5075948;28;20385;-68
2022/01/07 05:05:06;;;;;;;58.10;19.83;;;2.80;99.90;;;;;;5091740;28;20046;-69
2022/01/07 05:07:31;;;;;;;51.40;19.65;;;2.70;99.90;;;;;;5095180;28;20166;-69
2022/01/07 05:09:57;;;;;;;56.50;19.05;;;2.70;99.90;;;;;;5085949;28;20093;-69
2022/01/07 05:12:22;;;;;;;58.03;19.92;;;2.80;99.90;;;;;;5086943;28;20040;-69
2022/01/07 05:14:48;;;;;;;54.72;19.83;;;2.80;99.90;;;;;;5083723;28;20316;-68
2022/01/07 05:17:13;;;;;;;60.95;20.73;;;2.80;99.90;;;;;;5089103;28;20035;-69
2022/01/07 05:19:39;;;;;;;57.17;20.80;;;2.70;99.90;;;;;;5095009;28;20043;-69
2022/01/07 05:22:05;;;;;;;52.95;20.35;;;2.70;99.90;;;;;;5101000;28;20071;-70
2022/01/07 05:24:30;;;;;;;55.83;19.73;;;2.80;99.90;;;;;;5096008;28;20032;-69
2022/01/07 05:26:56;;;;;;;51.25;18.88;;;2.80;99.90;;;;;;5068963;28;20031;-69
2022/01/07 05:29:21;;;;;;;52.17;19.08;;;2.80;99.90;;;;;;5094850;28;20046;-67
2022/01/07 05:31:47;;;;;;;57.83;19.60;;;2.80;99.90;;;;;;5087759;28;20047;-70
2022/01/07 05:34:12;;;;;;;56.42;20.45;;;2.80;99.90;;;;;;5091772;28;20506;-69
2022/01/07 05:36:38;;;;;;;53.40;19.15;;;2.80;99.90;;;;;;5099162;28;20032;-68
2022/01/07 05:39:05;;;;;;;55.30;18.67;;;2.80;99.90;;;;;;5073967;28;20051;-69
2022/01/07 05:41:32;;;;;;;49.13;19.50;;;2.90;99.90;;;;;;5093161;28;20036;-69
2022/01/07 05:43:57;;;;;;;53.00;19.48;;;2.90;99.90;;;;;;5085510;28;20071;-69
2022/01/07 05:46:23;;;;;;;49.20;18.05;;;2.90;99.90;;;;;;5086337;28;20470;-69
2022/01/07 05:48:48;;;;;;;52.20;18.42;;;2.90;99.90;;;;;;5084311;28;20116;-69
2022/01/07 05:51:14;;;;;;;52.05;18.50;;;2.90;99.90;;;;;;5096014;28;20475;-69
2022/01/07 05:53:40;;;;;;;48.97;18.67;;;2.90;99.90;;;;;;5085411;28;20032;-69
2022/01/07 05:56:06;;;;;;;52.13;18.77;;;2.90;99.90;;;;;;5086285;28;20374;-70
2022/01/07 05:58:33;;;;;;;47.25;18.38;;;3.00;99.90;;;;;;5091127;28;20071;-67
2022/01/07 06:00:58;;;;;;;42.88;17.00;;;3.00;99.90;;;;;;5077370;28;20487;-69
2022/01/07 06:03:24;;;;;;;45.67;18.67;;;3.00;99.90;;;;;;5083539;28;20062;-69
2022/01/07 06:05:49;;;;;;;46.17;17.40;;;3.00;99.90;;;;;;5085928;28;20040;-68
2022/01/07 06:08:15;;;;;;;43.83;18.60;;;3.00;99.90;;;;;;5081343;28;21943;-69
2022/01/07 06:10:41;;;;;;;43.95;18.38;;;3.00;99.90;;;;;;5091512;28;20151;-69
2022/01/07 06:13:06;;;;;;;48.90;17.88;;;3.10;99.90;;;;;;5079324;28;20089;-68
2022/01/07 06:15:32;;;;;;;46.22;17.55;;;3.10;99.90;;;;;;5071437;28;20044;-69
2022/01/07 06:17:59;;;;;;;53.30;18.13;;;3.10;99.90;;;;;;5087833;28;20075;-69
2022/01/07 06:20:26;;;;;;;45.80;17.77;;;3.10;99.90;;;;;;5087940;28;20047;-68
2022/01/07 06:22:51;;;;;;;44.40;17.58;;;3.10;99.90;;;;;;5093936;28;20138;-69
2022/01/07 06:25:17;;;;;;;50.00;18.58;;;3.20;99.90;;;;;;5092341;28;20126;-68
2022/01/07 06:27:43;;;;;;;48.65;18.48;;;3.20;99.90;;;;;;5103258;28;20044;-69
2022/01/07 06:30:09;;;;;;;43.33;17.88;;;3.20;99.90;;;;;;5088590;28;20047;-69
2022/01/07 06:32:34;;;;;;;41.38;17.15;;;3.20;99.90;;;;;;5091730;28;20089;-69
2022/01/07 06:35:00;;;;;;;49.95;17.90;;;3.20;99.90;;;;;;5101417;28;20475;-69
2022/01/07 06:37:26;;;;;;;51.80;18.65;;;3.20;99.90;;;;;;5097203;28;20390;-67
2022/01/07 06:39:52;;;;;;;49.97;18.83;;;3.20;99.90;;;;;;5097915;28;20047;-68
2022/01/07 06:42:17;;;;;;;46.22;17.40;;;3.20;99.90;;;;;;5095366;28;20040;-69
2022/01/07 06:44:43;;;;;;;56.75;19.98;;;3.20;99.90;;;;;;5091204;28;20086;-68
2022/01/07 06:47:08;;;;;;;46.45;19.70;;;3.20;99.90;;;;;;5089416;28;20040;-68
2022/01/07 06:49:34;;;;;;;46.50;18.55;;;3.20;99.90;;;;;;5095450;28;20047;-68
2022/01/07 06:52:00;;;;;;;48.90;19.17;;;3.20;99.90;;;;;;5097363;28;20036;-69
2022/01/07 06:54:27;;;;;;;53.70;19.67;;;3.20;99.90;;;;;;5091472;28;20024;-68
2022/01/07 06:56:53;;;;;;;53.50;19.90;;;3.20;99.90;;;;;;5092713;28;20119;-68
2022/01/07 06:59:18;;;;;;;60.72;21.50;;;3.30;99.90;;;;;;5084587;28;20439;-68
2022/01/07 07:01:47;;;;;;;61.83;21.30;;;3.30;99.90;;;;;;5090711;28;20048;-67
2022/01/07 07:04:13;;;;;;;62.80;22.00;;;3.30;99.90;;;;;;5099641;28;20048;-69
2022/01/07 07:06:39;;;;;;;60.58;22.33;;;3.30;99.90;;;;;;5092925;28;20399;-69
2022/01/07 07:09:04;;;;;;;66.03;23.13;;;3.40;99.90;;;;;;5094783;28;20036;-69
2022/01/07 07:11:30;;;;;;;65.28;22.90;;;3.40;99.90;;;;;;5087930;28;20066;-68
2022/01/07 07:13:56;;;;;;;69.97;24.00;;;3.40;99.90;;;;;;5099693;28;20476;-68
2022/01/07 07:16:22;;;;;;;74.57;24.80;;;3.40;99.90;;;;;;5086756;28;20036;-68
2022/01/07 07:18:48;;;;;;;75.88;24.33;;;3.40;99.90;;;;;;5089483;28;20494;-69
2022/01/07 07:21:13;;;;;;;79.30;26.27;;;3.40;99.90;;;;;;5089947;28;20040;-69
2022/01/07 07:23:39;;;;;;;83.78;27.38;;;3.50;99.90;;;;;;5093421;28;20041;-69
2022/01/07 07:26:05;;;;;;;82.30;26.58;;;3.50;99.90;;;;;;5076942;28;20113;-67
2022/01/07 07:28:31;;;;;;;81.90;27.02;;;3.60;99.90;;;;;;5096208;28;20081;-68
2022/01/07 07:31:00;;;;;;;84.88;27.13;;;3.60;99.90;;;;;;5084459;28;20036;-69
2022/01/07 07:38:42;;;;;;;94.80;30.85;;;3.70;99.90;;;;;;5089998;28;20058;-67
2022/01/07 07:41:07;;;;;;;87.90;28.05;;;3.70;99.90;;;;;;5089055;28;20044;-68
2022/01/07 07:43:37;;;;;;;83.82;29.70;;;3.70;99.90;;;;;;5090074;28;20064;-68
2022/01/07 07:46:04;;;;;;;101.78;33.92;;;3.80;99.90;;;;;;5083014;28;20076;-69
2022/01/07 07:48:31;;;;;;;93.95;31.20;;;3.80;99.90;;;;;;5102153;28;20043;-68
2022/01/07 07:50:56;;;;;;;103.45;32.95;;;3.90;99.90;;;;;;5107782;28;20040;-68
2022/01/07 07:53:22;;;;;;;100.10;34.75;;;3.90;99.90;;;;;;5097066;28;20036;-68
2022/01/07 07:55:52;;;;;;;104.32;31.75;;;3.90;99.90;;;;;;5092305;28;20051;-69
2022/01/07 07:58:18;;;;;;;105.60;32.05;;;4.00;99.90;;;;;;5094222;28;20119;-68
2022/01/07 08:00:43;;;;;;;119.00;35.50;;;4.00;99.90;;;;;;5088362;28;20401;-72
2022/01/07 08:03:09;;;;;;;110.57;32.83;;;4.00;99.90;;;;;;5089381;28;20142;-72
2022/01/07 08:05:34;;;;;;;108.38;32.60;;;4.00;99.90;;;;;;5090726;28;20051;-72
2022/01/07 08:08:02;;;;;;;121.22;34.63;;;4.10;99.90;;;;;;5092525;28;20044;-69
2022/01/07 08:10:28;;;;;;;93.65;31.92;;;4.10;99.90;;;;;;5060648;28;20040;-71
2022/01/07 08:13:26;;;;;;;101.80;32.10;;;4.00;99.90;;;;;;5075459;28;20036;-70
2022/01/07 08:15:59;;;;;;;96.93;32.33;;;4.00;99.90;;;;;;5090363;28;20047;-71
2022/01/07 08:18:30;;;;;;;110.50;32.95;;;4.00;99.90;;;;;;5083459;28;20068;-73
2022/01/07 08:20:57;;;;;;;112.50;32.10;;;3.90;99.90;;;;;;5083701;28;20051;-71
2022/01/07 08:23:23;;;;;;;109.85;34.38;;;3.90;99.90;;;;;;5085791;28;20044;-72
2022/01/07 08:25:49;;;;;;;111.13;33.00;;;3.90;99.90;;;;;;5094001;28;20052;-71
2022/01/07 08:28:16;;;;;;;124.15;35.28;;;3.90;99.90;;;;;;5086771;28;20475;-71
2022/01/07 08:36:14;;;;;;;115.50;34.45;;;4.00;99.90;;;;;;5088601;28;20105;-72
2022/01/07 08:38:40;;;;;;;118.32;33.47;;;4.00;99.90;;;;;;5071701;28;20470;-70
2022/01/07 08:41:06;;;;;;;124.72;35.20;;;4.00;99.90;;;;;;5086934;28;20083;-71
2022/01/07 08:43:31;;;;;;;115.75;34.20;;;4.10;99.90;;;;;;5087473;28;21020;-72
2022/01/07 08:45:57;;;;;;;123.38;36.30;;;4.10;99.90;;;;;;5094566;28;20044;-69
2022/01/07 08:48:22;;;;;;;121.25;34.05;;;4.20;99.90;;;;;;5089558;28;20567;-70
2022/01/07 08:50:48;;;;;;;127.88;34.90;;;4.20;99.90;;;;;;5076810;28;20044;-71
2022/01/07 08:53:13;;;;;;;122.85;34.67;;;4.20;99.90;;;;;;5086474;28;20041;-72
2022/01/07 08:55:39;;;;;;;116.20;34.97;;;4.20;99.90;;;;;;5092406;28;20668;-71
2022/01/07 08:58:05;;;;;;;119.43;35.17;;;4.20;99.90;;;;;;5098175;28;20042;-71
2022/01/07 09:00:31;;;;;;;125.28;35.40;;;4.20;99.90;;;;;;5085971;28;20036;-71
2022/01/07 09:02:57;;;;;;;113.30;34.65;;;4.20;99.90;;;;;;5088747;28;20054;-71
2022/01/07 09:05:22;;;;;;;120.95;35.13;;;4.20;99.90;;;;;;5088161;28;20040;-71
2022/01/07 09:07:48;;;;;;;130.82;37.90;;;4.30;99.90;;;;;;5088790;28;20501;-70
2022/01/07 09:10:13;;;;;;;128.48;36.85;;;4.40;99.90;;;;;;5085101;28;20450;-72
2022/01/07 09:12:39;;;;;;;138.43;38.85;;;4.40;99.90;;;;;;5091276;28;20505;-70
2022/01/07 09:15:05;;;;;;;114.80;32.58;;;4.50;99.90;;;;;;5085917;28;20398;-71
2022/01/07 09:17:32;;;;;;;119.22;33.30;;;4.60;99.90;;;;;;5081597;28;20064;-70
2022/01/07 09:19:58;;;;;;;133.02;37.38;;;4.60;99.90;;;;;;5089429;28;20036;-69
2022/01/07 09:22:24;;;;;;;123.93;37.22;;;4.70;99.90;;;;;;5089825;28;20380;-72
2022/01/07 09:24:49;;;;;;;127.15;37.47;;;4.80;99.90;;;;;;5072123;28;20044;-72
2022/01/07 09:27:15;;;;;;;125.95;36.28;;;4.80;99.90;;;;;;5106344;28;20453;-71
2022/01/07 09:29:40;;;;;;;126.15;36.88;;;4.90;99.90;;;;;;5105791;28;20044;-72
2022/01/07 09:32:06;;;;;;;129.70;39.13;;;4.90;99.90;;;;;;5089495;28;20149;-73
2022/01/07 09:34:32;;;;;;;133.80;37.05;;;4.90;99.90;;;;;;5106633;28;20077;-73
2022/01/07 09:36:58;;;;;;;112.90;35.30;;;4.90;99.90;;;;;;5085451;28;20079;-74
2022/01/07 09:39:25;;;;;;;88.15;31.77;;;4.90;99.90;;;;;;5083359;28;20123;-75
2022/01/07 09:41:50;;;;;;;58.20;24.27;;;4.80;99.90;;;;;;5087187;28;20123;-72
2022/01/07 09:44:16;;;;;;;32.35;13.07;;;4.60;99.90;;;;;;5068991;28;20127;-71
2022/01/07 09:46:42;;;;;;;44.13;13.48;;;4.40;99.90;;;;;;5068488;28;20051;-75
2022/01/07 09:49:07;;;;;;;53.97;18.33;;;4.20;99.90;;;;;;5076821;28;20047;-72
2022/01/07 09:51:37;;;;;;;51.47;17.38;;;4.20;99.90;;;;;;5070799;28;20044;-76
2022/01/07 09:54:04;;;;;;;58.15;19.95;;;4.20;99.90;;;;;;5077466;28;20563;-75
2022/01/07 09:56:30;;;;;;;64.95;20.08;;;4.30;99.90;;;;;;5091194;28;20146;-76
2022/01/07 09:58:55;;;;;;;84.70;24.83;;;4.30;99.90;;;;;;5086282;28;20546;-77
2022/01/07 10:01:23;;;;;;;110.55;29.95;;;4.40;99.90;;;;;;5093906;28;20036;-69
2022/01/07 10:03:48;;;;;;;122.18;33.00;;;4.50;99.90;;;;;;5074529;28;20411;-74
2022/01/07 10:06:20;;;;;;;126.05;33.22;;;4.60;99.90;;;;;;5099312;28;20039;-73
2022/01/07 10:08:59;;;;;;;100.72;29.42;;;4.60;99.90;;;;;;5109777;28;20048;-73
2022/01/07 10:11:24;;;;;;;83.60;23.58;;;4.70;99.90;;;;;;5077122;28;20119;-70
2022/01/07 10:14:11;;;;;;;67.40;21.58;;;4.60;99.90;;;;;;5072998;28;20547;-73
2022/01/07 10:16:51;;;;;;;53.60;15.82;;;4.60;99.90;;;;;;5091918;28;20036;-75
2022/01/07 10:19:35;;;;;;;51.45;16.65;;;4.60;99.90;;;;;;5090900;28;20079;-77
2022/01/07 10:22:06;;;;;;;52.90;15.25;;;4.60;99.90;;;;;;5078309;28;20040;-77
2022/01/07 10:24:50;;;;;;;49.75;14.23;;;4.60;99.90;;;;;;5092851;28;20040;-74
2022/01/07 10:27:16;;;;;;;43.08;12.90;;;4.70;99.90;;;;;;5093663;28;20096;-74
2022/01/07 10:29:44;;;;;;;47.17;12.27;;;4.70;99.90;;;;;;5109555;28;20809;-71
2022/01/07 10:32:22;;;;;;;33.55;11.70;;;4.70;99.90;;;;;;5076531;28;20050;-72
2022/01/07 10:35:10;;;;;;;43.10;10.38;;;4.70;99.90;;;;;;5088895;28;20504;-70
2022/01/07 10:37:44;;;;;;;38.92;11.02;;;4.80;99.90;;;;;;5075713;28;20047;-73
2022/01/07 10:40:33;;;;;;;44.45;12.43;;;4.80;99.90;;;;;;5073448;28;20037;-73
2022/01/07 10:43:22;;;;;;;42.80;13.48;;;4.80;99.90;;;;;;5072151;28;20047;-74
2022/01/07 10:45:54;;;;;;;51.13;15.60;;;4.80;99.90;;;;;;5072803;28;20663;-72
2022/01/07 10:48:23;;;;;;;67.72;21.00;;;4.90;99.90;;;;;;5062889;28;20458;-75
2022/01/07 10:50:53;;;;;;;78.45;22.58;;;4.90;99.90;;;;;;5088385;28;20330;-73
2022/01/07 10:53:29;;;;;;;83.35;24.15;;;5.00;99.90;;;;;;5093644;28;20048;-70
2022/01/07 10:56:02;;;;;;;80.82;25.30;;;5.00;99.90;;;;;;5078798;28;20046;-72
2022/01/07 10:58:28;;;;;;;80.05;24.75;;;5.00;99.90;;;;;;5062988;28;20431;-70
2022/01/07 11:00:54;;;;;;;95.95;27.27;;;5.00;99.90;;;;;;5072394;28;20052;-71
2022/01/07 11:03:20;;;;;;;94.63;27.85;;;5.10;99.90;;;;;;5076094;28;20047;-71
2022/01/07 11:05:46;;;;;;;98.05;30.48;;;5.10;99.90;;;;;;5077307;28;20044;-72
2022/01/07 11:08:16;;;;;;;84.88;27.83;;;5.20;99.90;;;;;;5073113;28;20086;-72
2022/01/07 11:10:42;;;;;;;95.95;28.95;;;5.20;99.90;;;;;;5071798;28;20051;-70
2022/01/07 11:13:10;;;;;;;93.57;29.00;;;5.20;99.90;;;;;;5074314;28;20426;-70
2022/01/07 11:15:37;;;;;;;85.93;27.40;;;5.20;99.90;;;;;;5080648;28;20032;-72
2022/01/07 11:18:02;;;;;;;80.80;25.05;;;5.10;99.90;;;;;;5092807;28;20039;-70
2022/01/07 11:20:28;;;;;;;51.65;15.82;;;5.10;99.90;;;;;;5091560;28;20097;-71
2022/01/07 11:22:54;;;;;;;34.92;10.02;;;5.10;99.90;;;;;;5075631;28;20059;-69
2022/01/07 11:25:29;;;;;;;30.52;8.25;;;5.00;99.90;;;;;;5092907;28;20555;-67
2022/01/07 11:27:57;;;;;;;22.85;6.35;;;4.90;99.90;;;;;;5077355;28;20052;-70
2022/01/07 11:30:26;;;;;;;20.50;5.55;;;4.80;99.90;;;;;;5084947;28;20048;-69
2022/01/07 11:32:53;;;;;;;17.75;4.28;;;4.80;99.90;;;;;;5091736;28;20039;-71
2022/01/07 11:35:19;;;;;;;21.50;3.92;;;4.80;99.90;;;;;;5091495;28;20482;-72
2022/01/07 11:37:55;;;;;;;14.57;3.58;;;4.80;99.90;;;;;;5091699;28;20051;-69
2022/01/07 11:40:29;;;;;;;12.13;2.85;;;4.70;99.90;;;;;;5091546;28;20074;-72
2022/01/07 11:42:55;;;;;;;17.70;2.70;;;4.70;99.90;;;;;;5074884;28;20495;-73
2022/01/07 11:45:34;;;;;;;16.42;2.90;;;4.60;99.90;;;;;;5071767;28;20040;-70
2022/01/07 11:48:12;;;;;;;10.38;2.67;;;4.60;99.90;;;;;;5085579;28;20046;-70
2022/01/07 11:50:55;;;;;;;16.05;2.20;;;4.50;99.90;;;;;;5091649;28;20043;-73
2022/01/07 11:53:23;;;;;;;14.77;2.50;;;4.50;99.90;;;;;;5090392;28;20046;-71
2022/01/07 11:55:52;;;;;;;21.85;2.65;;;4.50;99.90;;;;;;5102715;28;20119;-70
2022/01/07 11:58:18;;;;;;;14.27;1.95;;;4.50;99.90;;;;;;5088232;28;20488;-69
2022/01/07 12:00:52;;;;;;;16.25;2.22;;;4.60;99.90;;;;;;5070435;28;20506;-70
2022/01/07 12:03:46;;;;;;;19.20;2.17;;;4.70;99.90;;;;;;5071160;28;20431;-69
2022/01/07 12:06:17;;;;;;;12.38;1.80;;;4.70;99.90;;;;;;5081841;28;20131;-72
2022/01/07 12:09:05;;;;;;;19.97;1.93;;;4.70;99.90;;;;;;5072771;28;20041;-73
2022/01/07 12:11:31;;;;;;;10.00;2.67;;;4.50;99.90;;;;;;5073244;28;20032;-69
2022/01/07 12:13:57;;;;;;;12.35;1.65;;;4.50;99.90;;;;;;5086333;28;20028;-69
2022/01/07 12:16:28;;;;;;;10.85;2.00;;;4.40;99.90;;;;;;5091031;28;20051;-69
2022/01/07 12:19:12;;;;;;;17.33;3.17;;;4.30;99.90;;;;;;5090239;28;20052;-71
2022/01/07 12:21:42;;;;;;;18.20;2.97;;;4.30;99.90;;;;;;5089927;28;20390;-70
2022/01/07 12:24:09;;;;;;;14.38;2.60;;;4.30;99.90;;;;;;5089670;28;20040;-72
2022/01/07 12:26:35;;;;;;;21.80;3.92;;;4.40;99.90;;;;;;5087432;28;20096;-72
2022/01/07 12:29:00;;;;;;;14.65;4.13;;;4.30;99.90;;;;;;5085736;28;20379;-70
2022/01/07 12:31:26;;;;;;;20.38;4.07;;;4.40;99.90;;;;;;5090018;28;20122;-73
2022/01/07 12:33:59;;;;;;;12.55;3.47;;;4.40;99.90;;;;;;5090086;28;20499;-73
2022/01/07 12:36:33;;;;;;;18.88;4.00;;;4.40;99.90;;;;;;5090373;28;20474;-71
2022/01/07 12:39:09;;;;;;;17.20;4.72;;;4.50;99.90;;;;;;5089915;28;20475;-72
2022/01/07 12:41:38;;;;;;;17.65;4.93;;;4.60;99.90;;;;;;5088365;28;20054;-71
2022/01/07 12:44:10;;;;;;;20.73;6.30;;;4.60;99.90;;;;;;5088710;28;20407;-70
2022/01/07 12:46:36;;;;;;;24.45;6.45;;;4.70;99.90;;;;;;5087818;28;20062;-72